sensor_id;sensor_type;location;lat;lon;timestamp;temperature;humidity
48686;DHT22;34485;51.536;3.816;2022-12-05T00:01:38;3.20;99.90
48686;DHT22;34485;51.536;3.816;2022-12-05T00:04:09;3.20;99.90
48686;DHT22;34485;51.536;3.816;2022-12-05T00:06:37;3.20;99.90
48686;DHT22;34485;51.536;3.816;2022-12-05T00:09:05;3.20;99.90
48686;DHT22;34485;51.536;3.816;2022-12-05T00:11:36;3.30;99.90
48686;DHT22;34485;51.536;3.816;2022-12-05T00:14:03;3.30;99.90
48686;DHT22;34485;51.536;3.816;2022-12-05T00:16:30;3.30;99.90
48686;DHT22;34485;51.536;3.816;2022-12-05T00:18:59;3.30;99.90
48686;DHT22;34485;51.536;3.816;2022-12-05T00:21:26;3.30;99.90
48686;DHT22;34485;51.536;3.816;2022-12-05T00:23:54;3.30;99.90
48686;DHT22;34485;51.536;3.816;2022-12-05T00:26:19;3.30;99.90
48686;DHT22;34485;51.536;3.816;2022-12-05T00:28:46;3.40;99.90
48686;DHT22;34485;51.536;3.816;2022-12-05T00:31:15;3.40;99.90
48686;DHT22;34485;51.536;3.816;2022-12-05T00:33:41;3.40;99.90
48686;DHT22;34485;51.536;3.816;2022-12-05T00:36:09;3.40;99.90
48686;DHT22;34485;51.536;3.816;2022-12-05T00:38:36;3.40;99.90
48686;DHT22;34485;51.536;3.816;2022-12-05T00:41:11;3.40;99.90
48686;DHT22;34485;51.536;3.816;2022-12-05T00:43:37;3.40;99.90
48686;DHT22;34485;51.536;3.816;2022-12-05T00:46:05;3.40;99.90
48686;DHT22;34485;51.536;3.816;2022-12-05T00:48:31;3.40;99.90
48686;DHT22;34485;51.536;3.816;2022-12-05T00:53:27;3.40;99.90
48686;DHT22;34485;51.536;3.816;2022-12-05T00:55:53;3.40;99.90
48686;DHT22;34485;51.536;3.816;2022-12-05T00:58:18;3.40;99.90
48686;DHT22;34485;51.536;3.816;2022-12-05T01:00:44;3.40;99.90
48686;DHT22;34485;51.536;3.816;2022-12-05T01:03:09;3.40;99.90
48686;DHT22;34485;51.536;3.816;2022-12-05T01:05:35;3.50;99.90
48686;DHT22;34485;51.536;3.816;2022-12-05T01:08:00;3.40;99.90
48686;DHT22;34485;51.536;3.816;2022-12-05T01:10:26;3.40;99.90
48686;DHT22;34485;51.536;3.816;2022-12-05T01:12:51;3.40;99.90
48686;DHT22;34485;51.536;3.816;2022-12-05T01:15:17;3.40;99.90
48686;DHT22;34485;51.536;3.816;2022-12-05T01:17:43;3.50;99.90
48686;DHT22;34485;51.536;3.816;2022-12-05T01:20:09;3.50;99.90
48686;DHT22;34485;51.536;3.816;2022-12-05T01:22:34;3.50;99.90
48686;DHT22;34485;51.536;3.816;2022-12-05T01:25:00;3.50;99.90
48686;DHT22;34485;51.536;3.816;2022-12-05T01:27:25;3.50;99.90
48686;DHT22;34485;51.536;3.816;2022-12-05T01:29:51;3.40;99.90
48686;DHT22;34485;51.536;3.816;2022-12-05T01:32:17;3.50;99.90
48686;DHT22;34485;51.536;3.816;2022-12-05T01:34:42;3.40;99.90
48686;DHT22;34485;51.536;3.816;2022-12-05T01:37:08;3.50;99.90
48686;DHT22;34485;51.536;3.816;2022-12-05T01:39:33;3.50;99.90
48686;DHT22;34485;51.536;3.816;2022-12-05T01:41:59;3.50;99.90
48686;DHT22;34485;51.536;3.816;2022-12-05T01:46:51;3.50;99.90
48686;DHT22;34485;51.536;3.816;2022-12-05T01:49:32;3.50;99.90
48686;DHT22;34485;51.536;3.816;2022-12-05T01:52:01;3.50;99.90
48686;DHT22;34485;51.536;3.816;2022-12-05T01:54:28;3.50;99.90
48686;DHT22;34485;51.536;3.816;2022-12-05T01:57:01;3.50;99.90
48686;DHT22;34485;51.536;3.816;2022-12-05T01:59:30;3.50;99.90
48686;DHT22;34485;51.536;3.816;2022-12-05T02:01:57;3.50;99.90
48686;DHT22;34485;51.536;3.816;2022-12-05T02:04:23;3.60;99.90
48686;DHT22;34485;51.536;3.816;2022-12-05T02:06:49;3.60;99.90
48686;DHT22;34485;51.536;3.816;2022-12-05T02:09:15;3.50;99.90
48686;DHT22;34485;51.536;3.816;2022-12-05T02:12:01;3.60;99.90
48686;DHT22;34485;51.536;3.816;2022-12-05T02:14:50;3.50;99.90
48686;DHT22;34485;51.536;3.816;2022-12-05T02:20:31;3.50;99.90
48686;DHT22;34485;51.536;3.816;2022-12-05T02:23:26;3.50;99.90
48686;DHT22;34485;51.536;3.816;2022-12-05T02:31:36;3.60;99.90
48686;DHT22;34485;51.536;3.816;2022-12-05T02:34:51;3.60;99.90
48686;DHT22;34485;51.536;3.816;2022-12-05T02:37:27;3.60;99.90
48686;DHT22;34485;51.536;3.816;2022-12-05T02:40:18;3.60;99.90
48686;DHT22;34485;51.536;3.816;2022-12-05T02:43:02;3.60;99.90
48686;DHT22;34485;51.536;3.816;2022-12-05T02:45:33;3.60;99.90
48686;DHT22;34485;51.536;3.816;2022-12-05T02:47:59;3.70;99.90
48686;DHT22;34485;51.536;3.816;2022-12-05T02:50:33;3.70;99.90
48686;DHT22;34485;51.536;3.816;2022-12-05T02:53:03;3.70;99.90
48686;DHT22;34485;51.536;3.816;2022-12-05T02:55:31;3.70;99.90
48686;DHT22;34485;51.536;3.816;2022-12-05T02:58:00;3.70;99.90
48686;DHT22;34485;51.536;3.816;2022-12-05T03:00:27;3.70;99.90
48686;DHT22;34485;51.536;3.816;2022-12-05T03:02:56;3.70;99.90
48686;DHT22;34485;51.536;3.816;2022-12-05T03:06:04;3.70;99.90
48686;DHT22;34485;51.536;3.816;2022-12-05T03:08:36;3.80;99.90
48686;DHT22;34485;51.536;3.816;2022-12-05T03:11:04;3.80;99.90
48686;DHT22;34485;51.536;3.816;2022-12-05T03:13:37;3.80;99.90
48686;DHT22;34485;51.536;3.816;2022-12-05T03:16:11;3.80;99.90
48686;DHT22;34485;51.536;3.816;2022-12-05T03:19:05;3.80;99.90
48686;DHT22;34485;51.536;3.816;2022-12-05T03:21:39;3.80;99.90
48686;DHT22;34485;51.536;3.816;2022-12-05T03:24:10;3.80;99.90
48686;DHT22;34485;51.536;3.816;2022-12-05T03:38:14;3.80;99.90
48686;DHT22;34485;51.536;3.816;2022-12-05T03:40:55;3.80;99.90
48686;DHT22;34485;51.536;3.816;2022-12-05T03:46:05;3.80;99.90
48686;DHT22;34485;51.536;3.816;2022-12-05T03:54:34;3.90;99.90
48686;DHT22;34485;51.536;3.816;2022-12-05T03:57:12;3.90;99.90
48686;DHT22;34485;51.536;3.816;2022-12-05T03:59:47;3.90;99.90
48686;DHT22;34485;51.536;3.816;2022-12-05T04:02:38;3.90;99.90
48686;DHT22;34485;51.536;3.816;2022-12-05T04:05:22;4.00;99.90
48686;DHT22;34485;51.536;3.816;2022-12-05T04:07:54;3.90;99.90
48686;DHT22;34485;51.536;3.816;2022-12-05T04:10:27;3.90;99.90
48686;DHT22;34485;51.536;3.816;2022-12-05T04:12:55;3.90;99.90
48686;DHT22;34485;51.536;3.816;2022-12-05T04:15:28;4.00;99.90
48686;DHT22;34485;51.536;3.816;2022-12-05T04:18:17;4.00;99.90
48686;DHT22;34485;51.536;3.816;2022-12-05T04:20:45;4.00;99.90
48686;DHT22;34485;51.536;3.816;2022-12-05T04:23:31;4.00;99.90
48686;DHT22;34485;51.536;3.816;2022-12-05T04:28:38;4.10;99.90
48686;DHT22;34485;51.536;3.816;2022-12-05T04:31:31;4.10;99.90
48686;DHT22;34485;51.536;3.816;2022-12-05T04:34:06;4.10;99.90
48686;DHT22;34485;51.536;3.816;2022-12-05T04:36:41;4.10;99.90
48686;DHT22;34485;51.536;3.816;2022-12-05T04:39:32;4.10;99.90
48686;DHT22;34485;51.536;3.816;2022-12-05T04:42:05;4.10;99.90
48686;DHT22;34485;51.536;3.816;2022-12-05T04:44:36;4.10;99.90
48686;DHT22;34485;51.536;3.816;2022-12-05T04:47:04;4.10;99.90
48686;DHT22;34485;51.536;3.816;2022-12-05T04:49:32;4.00;99.90
48686;DHT22;34485;51.536;3.816;2022-12-05T04:52:02;4.00;99.90
48686;DHT22;34485;51.536;3.816;2022-12-05T04:54:33;4.00;99.90
48686;DHT22;34485;51.536;3.816;2022-12-05T04:57:36;4.10;99.90
48686;DHT22;34485;51.536;3.816;2022-12-05T04:59:59;4.00;99.90
48686;DHT22;34485;51.536;3.816;2022-12-05T05:02:34;4.00;99.90
48686;DHT22;34485;51.536;3.816;2022-12-05T05:05:06;4.10;99.90
48686;DHT22;34485;51.536;3.816;2022-12-05T05:07:46;4.10;99.90
48686;DHT22;34485;51.536;3.816;2022-12-05T05:10:15;4.10;99.90
48686;DHT22;34485;51.536;3.816;2022-12-05T05:12:41;4.10;99.90
48686;DHT22;34485;51.536;3.816;2022-12-05T05:15:07;4.10;99.90
48686;DHT22;34485;51.536;3.816;2022-12-05T05:17:33;4.10;99.90
48686;DHT22;34485;51.536;3.816;2022-12-05T05:19:58;4.10;99.90
48686;DHT22;34485;51.536;3.816;2022-12-05T05:22:47;4.20;99.90
48686;DHT22;34485;51.536;3.816;2022-12-05T05:25:13;4.20;99.90
48686;DHT22;34485;51.536;3.816;2022-12-05T05:27:38;4.20;99.90
48686;DHT22;34485;51.536;3.816;2022-12-05T05:30:04;4.20;99.90
48686;DHT22;34485;51.536;3.816;2022-12-05T05:32:31;4.20;99.90
48686;DHT22;34485;51.536;3.816;2022-12-05T05:34:57;4.20;99.90
48686;DHT22;34485;51.536;3.816;2022-12-05T05:37:23;4.20;99.90
48686;DHT22;34485;51.536;3.816;2022-12-05T05:39:48;4.20;99.90
48686;DHT22;34485;51.536;3.816;2022-12-05T05:42:14;4.20;99.90
48686;DHT22;34485;51.536;3.816;2022-12-05T05:44:39;4.20;99.90
48686;DHT22;34485;51.536;3.816;2022-12-05T05:47:05;4.20;99.90
48686;DHT22;34485;51.536;3.816;2022-12-05T05:49:30;4.20;99.90
48686;DHT22;34485;51.536;3.816;2022-12-05T05:51:56;4.30;99.90
48686;DHT22;34485;51.536;3.816;2022-12-05T05:54:22;4.20;99.90
48686;DHT22;34485;51.536;3.816;2022-12-05T05:56:47;4.30;99.90
48686;DHT22;34485;51.536;3.816;2022-12-05T05:59:13;4.30;99.90
48686;DHT22;34485;51.536;3.816;2022-12-05T06:01:38;4.30;99.90
48686;DHT22;34485;51.536;3.816;2022-12-05T06:04:04;4.30;99.90
48686;DHT22;34485;51.536;3.816;2022-12-05T06:06:30;4.30;99.90
48686;DHT22;34485;51.536;3.816;2022-12-05T06:08:55;4.30;99.90
48686;DHT22;34485;51.536;3.816;2022-12-05T06:11:23;4.30;99.90
48686;DHT22;34485;51.536;3.816;2022-12-05T06:13:49;4.30;99.90
48686;DHT22;34485;51.536;3.816;2022-12-05T06:16:16;4.40;99.90
48686;DHT22;34485;51.536;3.816;2022-12-05T06:18:41;4.40;99.90
48686;DHT22;34485;51.536;3.816;2022-12-05T06:21:07;4.40;99.90
48686;DHT22;34485;51.536;3.816;2022-12-05T06:23:35;4.40;99.90
48686;DHT22;34485;51.536;3.816;2022-12-05T06:26:02;4.40;99.90
48686;DHT22;34485;51.536;3.816;2022-12-05T06:28:28;4.40;99.90
48686;DHT22;34485;51.536;3.816;2022-12-05T06:30:53;4.40;99.90
48686;DHT22;34485;51.536;3.816;2022-12-05T06:33:19;4.50;99.90
48686;DHT22;34485;51.536;3.816;2022-12-05T06:35:45;4.50;99.90
48686;DHT22;34485;51.536;3.816;2022-12-05T06:38:11;4.50;99.90
48686;DHT22;34485;51.536;3.816;2022-12-05T06:40:41;4.50;99.90
48686;DHT22;34485;51.536;3.816;2022-12-05T06:43:07;4.50;99.90
48686;DHT22;34485;51.536;3.816;2022-12-05T06:45:33;4.50;99.90
48686;DHT22;34485;51.536;3.816;2022-12-05T06:47:58;4.50;99.90
48686;DHT22;34485;51.536;3.816;2022-12-05T06:50:24;4.50;99.90
48686;DHT22;34485;51.536;3.816;2022-12-05T06:52:50;4.60;99.90
48686;DHT22;34485;51.536;3.816;2022-12-05T06:55:15;4.60;99.90
48686;DHT22;34485;51.536;3.816;2022-12-05T06:57:41;4.60;99.90
48686;DHT22;34485;51.536;3.816;2022-12-05T07:00:07;4.60;99.90
48686;DHT22;34485;51.536;3.816;2022-12-05T07:02:52;4.60;99.90
48686;DHT22;34485;51.536;3.816;2022-12-05T07:05:18;4.60;99.90
48686;DHT22;34485;51.536;3.816;2022-12-05T07:07:44;4.60;99.90
48686;DHT22;34485;51.536;3.816;2022-12-05T07:10:11;4.60;99.90
48686;DHT22;34485;51.536;3.816;2022-12-05T07:12:37;4.70;99.90
48686;DHT22;34485;51.536;3.816;2022-12-05T07:15:03;4.70;99.90
48686;DHT22;34485;51.536;3.816;2022-12-05T07:17:29;4.70;99.90
48686;DHT22;34485;51.536;3.816;2022-12-05T07:19:54;4.70;99.90
48686;DHT22;34485;51.536;3.816;2022-12-05T07:22:21;4.70;99.90
48686;DHT22;34485;51.536;3.816;2022-12-05T07:24:49;4.70;99.90
48686;DHT22;34485;51.536;3.816;2022-12-05T07:27:15;4.70;99.90
48686;DHT22;34485;51.536;3.816;2022-12-05T07:29:40;4.70;99.90
48686;DHT22;34485;51.536;3.816;2022-12-05T07:32:06;4.70;99.90
48686;DHT22;34485;51.536;3.816;2022-12-05T07:34:32;4.80;99.90
48686;DHT22;34485;51.536;3.816;2022-12-05T07:36:59;4.80;99.90
48686;DHT22;34485;51.536;3.816;2022-12-05T07:39:24;4.80;99.90
48686;DHT22;34485;51.536;3.816;2022-12-05T07:41:50;4.80;99.90
48686;DHT22;34485;51.536;3.816;2022-12-05T07:44:15;4.80;99.90
48686;DHT22;34485;51.536;3.816;2022-12-05T07:46:41;4.80;99.90
48686;DHT22;34485;51.536;3.816;2022-12-05T07:49:07;4.80;99.90
48686;DHT22;34485;51.536;3.816;2022-12-05T07:51:32;4.80;99.90
48686;DHT22;34485;51.536;3.816;2022-12-05T07:53:59;4.80;99.90
48686;DHT22;34485;51.536;3.816;2022-12-05T07:56:25;4.80;99.90
48686;DHT22;34485;51.536;3.816;2022-12-05T07:58:51;4.80;99.90
48686;DHT22;34485;51.536;3.816;2022-12-05T08:01:20;4.80;99.90
48686;DHT22;34485;51.536;3.816;2022-12-05T08:03:47;4.80;99.90
48686;DHT22;34485;51.536;3.816;2022-12-05T08:06:21;4.90;99.90
48686;DHT22;34485;51.536;3.816;2022-12-05T08:08:48;4.90;99.90
48686;DHT22;34485;51.536;3.816;2022-12-05T08:11:22;4.90;99.90
48686;DHT22;34485;51.536;3.816;2022-12-05T08:13:49;4.90;99.90
48686;DHT22;34485;51.536;3.816;2022-12-05T08:16:19;4.90;99.90
48686;DHT22;34485;51.536;3.816;2022-12-05T08:18:45;5.00;99.90
48686;DHT22;34485;51.536;3.816;2022-12-05T08:21:17;5.00;99.90
48686;DHT22;34485;51.536;3.816;2022-12-05T08:23:43;5.00;99.90
48686;DHT22;34485;51.536;3.816;2022-12-05T08:26:12;5.00;99.90
48686;DHT22;34485;51.536;3.816;2022-12-05T08:28:38;5.00;99.90
48686;DHT22;34485;51.536;3.816;2022-12-05T08:31:06;5.00;99.90
48686;DHT22;34485;51.536;3.816;2022-12-05T08:33:33;5.10;99.90
48686;DHT22;34485;51.536;3.816;2022-12-05T08:36:09;5.10;99.90
48686;DHT22;34485;51.536;3.816;2022-12-05T08:38:35;5.10;99.90
48686;DHT22;34485;51.536;3.816;2022-12-05T08:41:05;5.10;99.90
48686;DHT22;34485;51.536;3.816;2022-12-05T08:43:32;5.10;99.90
48686;DHT22;34485;51.536;3.816;2022-12-05T08:45:58;5.10;99.90
48686;DHT22;34485;51.536;3.816;2022-12-05T08:48:24;5.10;99.90
48686;DHT22;34485;51.536;3.816;2022-12-05T08:50:50;5.10;99.90
48686;DHT22;34485;51.536;3.816;2022-12-05T08:53:16;5.20;99.90
48686;DHT22;34485;51.536;3.816;2022-12-05T08:55:42;5.20;99.90
48686;DHT22;34485;51.536;3.816;2022-12-05T08:58:08;5.20;99.90
48686;DHT22;34485;51.536;3.816;2022-12-05T09:00:34;5.20;99.90
48686;DHT22;34485;51.536;3.816;2022-12-05T09:02:59;5.20;99.90
48686;DHT22;34485;51.536;3.816;2022-12-05T09:05:25;5.20;99.90
48686;DHT22;34485;51.536;3.816;2022-12-05T09:07:51;5.30;99.90
48686;DHT22;34485;51.536;3.816;2022-12-05T09:10:17;5.30;99.90
48686;DHT22;34485;51.536;3.816;2022-12-05T09:12:43;5.30;99.90
48686;DHT22;34485;51.536;3.816;2022-12-05T09:15:10;5.30;99.90
48686;DHT22;34485;51.536;3.816;2022-12-05T09:17:36;5.30;99.90
48686;DHT22;34485;51.536;3.816;2022-12-05T09:20:03;5.30;99.90
48686;DHT22;34485;51.536;3.816;2022-12-05T09:22:31;5.30;99.90
48686;DHT22;34485;51.536;3.816;2022-12-05T09:24:56;5.40;99.90
48686;DHT22;34485;51.536;3.816;2022-12-05T09:27:22;5.40;99.90
48686;DHT22;34485;51.536;3.816;2022-12-05T09:29:47;5.40;99.90
48686;DHT22;34485;51.536;3.816;2022-12-05T09:32:14;5.40;99.90
48686;DHT22;34485;51.536;3.816;2022-12-05T09:34:39;5.40;99.90
48686;DHT22;34485;51.536;3.816;2022-12-05T09:37:06;5.50;99.90
48686;DHT22;34485;51.536;3.816;2022-12-05T09:39:33;5.50;99.90
48686;DHT22;34485;51.536;3.816;2022-12-05T09:45:14;5.60;99.90
48686;DHT22;34485;51.536;3.816;2022-12-05T09:50:26;5.70;99.90
48686;DHT22;34485;51.536;3.816;2022-12-05T09:58:48;5.70;99.90
48686;DHT22;34485;51.536;3.816;2022-12-05T10:04:06;5.70;99.90
48686;DHT22;34485;51.536;3.816;2022-12-05T10:06:40;5.70;99.90
48686;DHT22;34485;51.536;3.816;2022-12-05T10:11:50;5.80;99.90
48686;DHT22;34485;51.536;3.816;2022-12-05T10:14:35;5.80;99.90
48686;DHT22;34485;51.536;3.816;2022-12-05T10:17:20;5.80;99.90
48686;DHT22;34485;51.536;3.816;2022-12-05T10:19:48;5.80;99.90
48686;DHT22;34485;51.536;3.816;2022-12-05T10:22:26;5.80;99.90
48686;DHT22;34485;51.536;3.816;2022-12-05T10:24:55;5.90;99.90
48686;DHT22;34485;51.536;3.816;2022-12-05T10:27:31;5.90;99.90
48686;DHT22;34485;51.536;3.816;2022-12-05T10:32:56;5.90;99.90
48686;DHT22;34485;51.536;3.816;2022-12-05T10:37:55;5.90;99.90
48686;DHT22;34485;51.536;3.816;2022-12-05T10:40:22;5.90;99.90
48686;DHT22;34485;51.536;3.816;2022-12-05T10:42:49;5.90;99.90
48686;DHT22;34485;51.536;3.816;2022-12-05T10:45:21;5.90;99.90
48686;DHT22;34485;51.536;3.816;2022-12-05T10:47:47;5.90;99.90
48686;DHT22;34485;51.536;3.816;2022-12-05T10:52:54;5.90;99.90
48686;DHT22;34485;51.536;3.816;2022-12-05T10:55:20;6.00;99.90
48686;DHT22;34485;51.536;3.816;2022-12-05T10:57:52;6.00;99.90
48686;DHT22;34485;51.536;3.816;2022-12-05T11:00:32;6.00;99.90
48686;DHT22;34485;51.536;3.816;2022-12-05T11:02:59;6.00;99.90
48686;DHT22;34485;51.536;3.816;2022-12-05T11:05:28;6.00;99.90
48686;DHT22;34485;51.536;3.816;2022-12-05T11:07:55;6.00;99.90
48686;DHT22;34485;51.536;3.816;2022-12-05T11:10:34;6.00;99.90
48686;DHT22;34485;51.536;3.816;2022-12-05T11:13:21;6.00;99.90
48686;DHT22;34485;51.536;3.816;2022-12-05T11:15:48;6.00;99.90
48686;DHT22;34485;51.536;3.816;2022-12-05T11:18:31;6.00;99.90
48686;DHT22;34485;51.536;3.816;2022-12-05T11:21:11;6.00;99.90
48686;DHT22;34485;51.536;3.816;2022-12-05T11:23:38;6.00;99.90
48686;DHT22;34485;51.536;3.816;2022-12-05T11:26:31;5.90;99.90
48686;DHT22;34485;51.536;3.816;2022-12-05T11:28:58;5.90;99.90
48686;DHT22;34485;51.536;3.816;2022-12-05T11:31:29;5.90;99.90
48686;DHT22;34485;51.536;3.816;2022-12-05T11:34:26;6.00;99.90
48686;DHT22;34485;51.536;3.816;2022-12-05T11:36:56;6.00;99.90
48686;DHT22;34485;51.536;3.816;2022-12-05T11:39:24;6.00;99.90
48686;DHT22;34485;51.536;3.816;2022-12-05T12:06:43;6.20;99.90
48686;DHT22;34485;51.536;3.816;2022-12-05T12:12:25;6.20;99.90
48686;DHT22;34485;51.536;3.816;2022-12-05T12:20:26;6.20;99.90
48686;DHT22;34485;51.536;3.816;2022-12-05T12:23:10;6.20;99.90
48686;DHT22;34485;51.536;3.816;2022-12-05T12:25:51;6.20;99.90
48686;DHT22;34485;51.536;3.816;2022-12-05T12:28:42;6.20;99.90
48686;DHT22;34485;51.536;3.816;2022-12-05T12:34:10;6.20;99.90
48686;DHT22;34485;51.536;3.816;2022-12-05T12:37:02;6.30;99.90
48686;DHT22;34485;51.536;3.816;2022-12-05T12:42:29;6.30;99.90
48686;DHT22;34485;51.536;3.816;2022-12-05T12:45:07;6.30;99.90
48686;DHT22;34485;51.536;3.816;2022-12-05T12:48:08;6.30;99.90
48686;DHT22;34485;51.536;3.816;2022-12-05T12:50:41;6.40;99.90
48686;DHT22;34485;51.536;3.816;2022-12-05T12:53:25;6.40;99.90
48686;DHT22;34485;51.536;3.816;2022-12-05T12:56:14;6.40;99.90
48686;DHT22;34485;51.536;3.816;2022-12-05T13:03:56;6.50;99.90
48686;DHT22;34485;51.536;3.816;2022-12-05T13:09:10;6.50;99.90
48686;DHT22;34485;51.536;3.816;2022-12-05T13:11:40;6.50;99.90
48686;DHT22;34485;51.536;3.816;2022-12-05T13:14:11;6.50;99.90
48686;DHT22;34485;51.536;3.816;2022-12-05T13:16:43;6.50;99.90
48686;DHT22;34485;51.536;3.816;2022-12-05T13:19:26;6.50;99.90
48686;DHT22;34485;51.536;3.816;2022-12-05T13:21:56;6.50;99.90
48686;DHT22;34485;51.536;3.816;2022-12-05T13:24:25;6.50;99.90
48686;DHT22;34485;51.536;3.816;2022-12-05T13:26:52;6.50;99.90
48686;DHT22;34485;51.536;3.816;2022-12-05T13:29:21;6.50;99.90
48686;DHT22;34485;51.536;3.816;2022-12-05T13:31:50;6.50;99.90
48686;DHT22;34485;51.536;3.816;2022-12-05T13:34:46;6.50;99.90
48686;DHT22;34485;51.536;3.816;2022-12-05T13:37:33;6.50;99.90
48686;DHT22;34485;51.536;3.816;2022-12-05T13:40:27;6.50;99.90
48686;DHT22;34485;51.536;3.816;2022-12-05T13:43:16;6.50;99.90
48686;DHT22;34485;51.536;3.816;2022-12-05T13:46:06;6.50;99.90
48686;DHT22;34485;51.536;3.816;2022-12-05T13:48:36;6.50;99.90
48686;DHT22;34485;51.536;3.816;2022-12-05T13:51:10;6.50;99.90
48686;DHT22;34485;51.536;3.816;2022-12-05T13:53:46;6.50;99.90
48686;DHT22;34485;51.536;3.816;2022-12-05T14:03:55;6.50;99.90
48686;DHT22;34485;51.536;3.816;2022-12-05T14:15:22;6.60;99.90
48686;DHT22;34485;51.536;3.816;2022-12-05T14:17:48;6.60;99.90
48686;DHT22;34485;51.536;3.816;2022-12-05T14:28:42;6.50;99.90
48686;DHT22;34485;51.536;3.816;2022-12-05T14:34:16;6.50;99.90
48686;DHT22;34485;51.536;3.816;2022-12-05T14:37:05;6.50;99.90
48686;DHT22;34485;51.536;3.816;2022-12-05T14:39:38;6.40;99.90
48686;DHT22;34485;51.536;3.816;2022-12-05T14:42:31;6.50;99.90
48686;DHT22;34485;51.536;3.816;2022-12-05T14:45:01;6.40;99.90
48686;DHT22;34485;51.536;3.816;2022-12-05T14:47:32;6.40;99.90
48686;DHT22;34485;51.536;3.816;2022-12-05T14:50:21;6.40;99.90
48686;DHT22;34485;51.536;3.816;2022-12-05T14:53:29;6.40;99.90
48686;DHT22;34485;51.536;3.816;2022-12-05T14:56:19;6.40;99.90
48686;DHT22;34485;51.536;3.816;2022-12-05T15:01:34;6.30;99.90
48686;DHT22;34485;51.536;3.816;2022-12-05T15:06:58;6.30;99.90
48686;DHT22;34485;51.536;3.816;2022-12-05T15:15:32;6.30;99.90
48686;DHT22;34485;51.536;3.816;2022-12-05T15:21:08;6.30;99.90
48686;DHT22;34485;51.536;3.816;2022-12-05T15:23:44;6.30;99.90
48686;DHT22;34485;51.536;3.816;2022-12-05T15:31:30;6.30;99.90
48686;DHT22;34485;51.536;3.816;2022-12-05T15:34:00;6.20;99.90
48686;DHT22;34485;51.536;3.816;2022-12-05T15:36:34;6.30;99.90
48686;DHT22;34485;51.536;3.816;2022-12-05T15:39:13;6.30;99.90
48686;DHT22;34485;51.536;3.816;2022-12-05T15:41:41;6.30;99.90
48686;DHT22;34485;51.536;3.816;2022-12-05T15:44:06;6.30;99.90
48686;DHT22;34485;51.536;3.816;2022-12-05T15:46:32;6.30;99.90
48686;DHT22;34485;51.536;3.816;2022-12-05T15:48:57;6.30;99.90
48686;DHT22;34485;51.536;3.816;2022-12-05T15:51:36;6.20;99.90
48686;DHT22;34485;51.536;3.816;2022-12-05T15:54:06;6.20;99.90
48686;DHT22;34485;51.536;3.816;2022-12-05T15:56:41;6.20;99.90
48686;DHT22;34485;51.536;3.816;2022-12-05T15:59:19;6.20;99.90
48686;DHT22;34485;51.536;3.816;2022-12-05T16:01:50;6.20;99.90
48686;DHT22;34485;51.536;3.816;2022-12-05T16:04:29;6.20;99.90
48686;DHT22;34485;51.536;3.816;2022-12-05T16:06:55;6.20;99.90
48686;DHT22;34485;51.536;3.816;2022-12-05T16:09:27;6.20;99.90
48686;DHT22;34485;51.536;3.816;2022-12-05T16:12:02;6.20;99.90
48686;DHT22;34485;51.536;3.816;2022-12-05T16:14:31;6.20;99.90
48686;DHT22;34485;51.536;3.816;2022-12-05T16:16:58;6.20;99.90
48686;DHT22;34485;51.536;3.816;2022-12-05T16:19:29;6.30;99.90
48686;DHT22;34485;51.536;3.816;2022-12-05T16:22:00;6.30;99.90
48686;DHT22;34485;51.536;3.816;2022-12-05T16:24:29;6.20;99.90
48686;DHT22;34485;51.536;3.816;2022-12-05T16:27:03;6.20;99.90
48686;DHT22;34485;51.536;3.816;2022-12-05T16:29:33;6.20;99.90
48686;DHT22;34485;51.536;3.816;2022-12-05T16:32:04;6.20;99.90
48686;DHT22;34485;51.536;3.816;2022-12-05T16:34:32;6.20;99.90
48686;DHT22;34485;51.536;3.816;2022-12-05T16:36:58;6.20;99.90
48686;DHT22;34485;51.536;3.816;2022-12-05T16:39:26;6.20;99.90
48686;DHT22;34485;51.536;3.816;2022-12-05T16:41:53;6.20;99.90
48686;DHT22;34485;51.536;3.816;2022-12-05T16:44:52;6.20;99.90
48686;DHT22;34485;51.536;3.816;2022-12-05T16:47:23;6.30;99.90
48686;DHT22;34485;51.536;3.816;2022-12-05T16:49:49;6.30;99.90
48686;DHT22;34485;51.536;3.816;2022-12-05T16:52:15;6.20;99.90
48686;DHT22;34485;51.536;3.816;2022-12-05T16:54:42;6.20;99.90
48686;DHT22;34485;51.536;3.816;2022-12-05T16:57:12;6.20;99.90
48686;DHT22;34485;51.536;3.816;2022-12-05T16:59:40;6.20;99.90
48686;DHT22;34485;51.536;3.816;2022-12-05T17:02:12;6.20;99.90
48686;DHT22;34485;51.536;3.816;2022-12-05T17:04:38;6.20;99.90
48686;DHT22;34485;51.536;3.816;2022-12-05T17:07:04;6.20;99.90
48686;DHT22;34485;51.536;3.816;2022-12-05T17:09:30;6.20;99.90
48686;DHT22;34485;51.536;3.816;2022-12-05T17:12:09;6.20;99.90
48686;DHT22;34485;51.536;3.816;2022-12-05T17:14:35;6.30;99.90
48686;DHT22;34485;51.536;3.816;2022-12-05T17:17:01;6.20;99.90
48686;DHT22;34485;51.536;3.816;2022-12-05T17:19:27;6.20;99.90
48686;DHT22;34485;51.536;3.816;2022-12-05T17:21:53;6.20;99.90
48686;DHT22;34485;51.536;3.816;2022-12-05T17:24:19;6.20;99.90
48686;DHT22;34485;51.536;3.816;2022-12-05T17:26:45;6.20;99.90
48686;DHT22;34485;51.536;3.816;2022-12-05T17:29:11;6.20;99.90
48686;DHT22;34485;51.536;3.816;2022-12-05T17:31:37;6.20;99.90
48686;DHT22;34485;51.536;3.816;2022-12-05T17:34:13;6.20;99.90
48686;DHT22;34485;51.536;3.816;2022-12-05T17:36:40;6.30;99.90
48686;DHT22;34485;51.536;3.816;2022-12-05T17:39:05;6.30;99.90
48686;DHT22;34485;51.536;3.816;2022-12-05T17:41:31;6.30;99.90
48686;DHT22;34485;51.536;3.816;2022-12-05T17:43:56;6.30;99.90
48686;DHT22;34485;51.536;3.816;2022-12-05T17:46:22;6.30;99.90
48686;DHT22;34485;51.536;3.816;2022-12-05T17:48:49;6.30;99.90
48686;DHT22;34485;51.536;3.816;2022-12-05T17:51:15;6.30;99.90
48686;DHT22;34485;51.536;3.816;2022-12-05T17:53:42;6.30;99.90
48686;DHT22;34485;51.536;3.816;2022-12-05T17:56:09;6.30;99.90
48686;DHT22;34485;51.536;3.816;2022-12-05T17:58:35;6.40;99.90
48686;DHT22;34485;51.536;3.816;2022-12-05T18:01:00;6.30;99.90
48686;DHT22;34485;51.536;3.816;2022-12-05T18:03:26;6.30;99.90
48686;DHT22;34485;51.536;3.816;2022-12-05T18:05:52;6.30;99.90
48686;DHT22;34485;51.536;3.816;2022-12-05T18:08:18;6.30;99.90
48686;DHT22;34485;51.536;3.816;2022-12-05T18:10:46;6.30;99.90
48686;DHT22;34485;51.536;3.816;2022-12-05T18:13:12;6.30;99.90
48686;DHT22;34485;51.536;3.816;2022-12-05T18:15:39;6.30;99.90
48686;DHT22;34485;51.536;3.816;2022-12-05T18:18:05;6.30;99.90
48686;DHT22;34485;51.536;3.816;2022-12-05T18:20:33;6.30;99.90
48686;DHT22;34485;51.536;3.816;2022-12-05T18:23:00;6.20;99.90
48686;DHT22;34485;51.536;3.816;2022-12-05T18:25:27;6.30;99.90
48686;DHT22;34485;51.536;3.816;2022-12-05T18:27:53;6.30;99.90
48686;DHT22;34485;51.536;3.816;2022-12-05T18:30:18;6.30;99.90
48686;DHT22;34485;51.536;3.816;2022-12-05T18:32:44;6.30;99.90
48686;DHT22;34485;51.536;3.816;2022-12-05T18:35:10;6.30;99.90
48686;DHT22;34485;51.536;3.816;2022-12-05T18:37:38;6.30;99.90
48686;DHT22;34485;51.536;3.816;2022-12-05T18:40:05;6.30;99.90
48686;DHT22;34485;51.536;3.816;2022-12-05T18:42:31;6.30;99.90
48686;DHT22;34485;51.536;3.816;2022-12-05T18:44:57;6.30;99.90